sensor_id;sensor_type;location;lat;lon;timestamp;temperature;humidity
44047;DHT22;29713;-33.888;151.150;2023-02-01T00:01:09;28.30;99.90
44047;DHT22;29713;-33.888;151.150;2023-02-01T00:03:36;28.30;99.90
44047;DHT22;29713;-33.888;151.150;2023-02-01T00:06:04;28.30;99.90
44047;DHT22;29713;-33.888;151.150;2023-02-01T00:08:31;28.20;99.90
44047;DHT22;29713;-33.888;151.150;2023-02-01T00:11:03;28.20;99.90
44047;DHT22;29713;-33.888;151.150;2023-02-01T00:13:33;28.30;99.90
44047;DHT22;29713;-33.888;151.150;2023-02-01T00:16:05;28.50;99.90
44047;DHT22;29713;-33.888;151.150;2023-02-01T00:18:33;28.60;99.90
44047;DHT22;29713;-33.888;151.150;2023-02-01T00:21:01;28.80;99.90
44047;DHT22;29713;-33.888;151.150;2023-02-01T00:23:28;28.80;99.90
44047;DHT22;29713;-33.888;151.150;2023-02-01T00:25:55;28.70;99.90
44047;DHT22;29713;-33.888;151.150;2023-02-01T00:28:26;28.50;99.90
44047;DHT22;29713;-33.888;151.150;2023-02-01T00:31:01;28.50;99.90
44047;DHT22;29713;-33.888;151.150;2023-02-01T00:33:30;28.30;99.90
44047;DHT22;29713;-33.888;151.150;2023-02-01T00:35:59;28.20;99.90
44047;DHT22;29713;-33.888;151.150;2023-02-01T00:38:27;28.00;99.90
44047;DHT22;29713;-33.888;151.150;2023-02-01T00:41:01;27.90;99.90
44047;DHT22;29713;-33.888;151.150;2023-02-01T00:43:30;27.80;99.90
44047;DHT22;29713;-33.888;151.150;2023-02-01T00:45:57;27.90;99.90
44047;DHT22;29713;-33.888;151.150;2023-02-01T00:48:25;28.00;99.90
44047;DHT22;29713;-33.888;151.150;2023-02-01T00:50:53;28.30;99.90
44047;DHT22;29713;-33.888;151.150;2023-02-01T00:53:20;28.50;99.90
44047;DHT22;29713;-33.888;151.150;2023-02-01T00:55:48;28.80;99.90
44047;DHT22;29713;-33.888;151.150;2023-02-01T00:58:16;29.10;99.90
44047;DHT22;29713;-33.888;151.150;2023-02-01T01:00:43;29.30;99.90
44047;DHT22;29713;-33.888;151.150;2023-02-01T01:03:10;29.40;99.90
44047;DHT22;29713;-33.888;151.150;2023-02-01T01:05:49;29.20;99.90
44047;DHT22;29713;-33.888;151.150;2023-02-01T01:08:17;29.10;99.90
44047;DHT22;29713;-33.888;151.150;2023-02-01T01:10:44;29.10;99.90
44047;DHT22;29713;-33.888;151.150;2023-02-01T01:13:11;29.30;99.90
44047;DHT22;29713;-33.888;151.150;2023-02-01T01:15:40;29.50;99.90
44047;DHT22;29713;-33.888;151.150;2023-02-01T01:18:08;29.80;99.90
44047;DHT22;29713;-33.888;151.150;2023-02-01T01:20:37;30.10;99.90
44047;DHT22;29713;-33.888;151.150;2023-02-01T01:23:06;30.40;99.90
44047;DHT22;29713;-33.888;151.150;2023-02-01T01:25:38;30.70;99.90
44047;DHT22;29713;-33.888;151.150;2023-02-01T01:28:06;31.00;99.90
44047;DHT22;29713;-33.888;151.150;2023-02-01T01:30:34;31.20;99.90
44047;DHT22;29713;-33.888;151.150;2023-02-01T01:33:02;31.40;99.90
44047;DHT22;29713;-33.888;151.150;2023-02-01T01:35:31;31.60;99.90
44047;DHT22;29713;-33.888;151.150;2023-02-01T01:38:00;31.50;99.90
44047;DHT22;29713;-33.888;151.150;2023-02-01T01:40:28;31.40;99.90
44047;DHT22;29713;-33.888;151.150;2023-02-01T01:42:56;31.30;99.90
44047;DHT22;29713;-33.888;151.150;2023-02-01T01:45:34;31.50;99.90
44047;DHT22;29713;-33.888;151.150;2023-02-01T01:48:05;31.40;99.90
44047;DHT22;29713;-33.888;151.150;2023-02-01T01:50:46;31.40;99.90
44047;DHT22;29713;-33.888;151.150;2023-02-01T01:53:21;31.50;99.90
44047;DHT22;29713;-33.888;151.150;2023-02-01T01:55:51;31.60;99.90
44047;DHT22;29713;-33.888;151.150;2023-02-01T01:58:23;31.90;99.90
44047;DHT22;29713;-33.888;151.150;2023-02-01T02:00:52;32.10;99.90
44047;DHT22;29713;-33.888;151.150;2023-02-01T02:03:42;32.30;99.90
44047;DHT22;29713;-33.888;151.150;2023-02-01T02:08:44;32.00;99.90
44047;DHT22;29713;-33.888;151.150;2023-02-01T02:11:16;32.10;99.90
44047;DHT22;29713;-33.888;151.150;2023-02-01T02:13:48;32.10;99.90
44047;DHT22;29713;-33.888;151.150;2023-02-01T02:30:58;32.80;99.90
44047;DHT22;29713;-33.888;151.150;2023-02-01T02:38:50;33.30;99.90
44047;DHT22;29713;-33.888;151.150;2023-02-01T02:41:40;33.50;99.90
44047;DHT22;29713;-33.888;151.150;2023-02-01T02:50:42;34.20;99.90
44047;DHT22;29713;-33.888;151.150;2023-02-01T02:53:32;34.80;99.90
44047;DHT22;29713;-33.888;151.150;2023-02-01T02:56:21;34.60;99.90
44047;DHT22;29713;-33.888;151.150;2023-02-01T02:59:09;34.90;99.90
44047;DHT22;29713;-33.888;151.150;2023-02-01T03:01:56;35.10;99.90
44047;DHT22;29713;-33.888;151.150;2023-02-01T03:04:42;35.20;99.90
44047;DHT22;29713;-33.888;151.150;2023-02-01T03:07:42;35.30;99.90
44047;DHT22;29713;-33.888;151.150;2023-02-01T03:10:07;35.50;99.90
44047;DHT22;29713;-33.888;151.150;2023-02-01T03:12:38;35.20;99.90
44047;DHT22;29713;-33.888;151.150;2023-02-01T03:15:39;35.40;99.90
44047;DHT22;29713;-33.888;151.150;2023-02-01T03:18:16;35.50;99.90
44047;DHT22;29713;-33.888;151.150;2023-02-01T03:20:47;36.00;99.90
44047;DHT22;29713;-33.888;151.150;2023-02-01T03:23:18;36.00;99.90
44047;DHT22;29713;-33.888;151.150;2023-02-01T03:25:49;36.10;99.90
44047;DHT22;29713;-33.888;151.150;2023-02-01T03:28:18;36.10;99.90
44047;DHT22;29713;-33.888;151.150;2023-02-01T03:30:49;36.10;99.90
44047;DHT22;29713;-33.888;151.150;2023-02-01T03:33:18;36.00;99.90
44047;DHT22;29713;-33.888;151.150;2023-02-01T03:36:06;36.00;99.90
44047;DHT22;29713;-33.888;151.150;2023-02-01T03:38:50;36.20;99.90
44047;DHT22;29713;-33.888;151.150;2023-02-01T03:41:27;36.30;99.90
44047;DHT22;29713;-33.888;151.150;2023-02-01T03:44:04;36.00;99.90
44047;DHT22;29713;-33.888;151.150;2023-02-01T03:46:47;36.10;99.90
44047;DHT22;29713;-33.888;151.150;2023-02-01T03:49:38;36.00;99.90
44047;DHT22;29713;-33.888;151.150;2023-02-01T03:52:08;36.10;99.90
44047;DHT22;29713;-33.888;151.150;2023-02-01T03:54:37;36.20;99.90
44047;DHT22;29713;-33.888;151.150;2023-02-01T03:57:10;36.20;99.90
44047;DHT22;29713;-33.888;151.150;2023-02-01T03:59:42;36.40;99.90
44047;DHT22;29713;-33.888;151.150;2023-02-01T04:02:11;36.20;99.90
44047;DHT22;29713;-33.888;151.150;2023-02-01T04:04:38;36.10;99.90
44047;DHT22;29713;-33.888;151.150;2023-02-01T04:07:06;35.80;99.90
44047;DHT22;29713;-33.888;151.150;2023-02-01T04:09:33;35.70;99.90
44047;DHT22;29713;-33.888;151.150;2023-02-01T04:12:01;36.00;99.90
44047;DHT22;29713;-33.888;151.150;2023-02-01T04:14:28;36.00;99.90
44047;DHT22;29713;-33.888;151.150;2023-02-01T04:16:56;36.00;99.90
44047;DHT22;29713;-33.888;151.150;2023-02-01T04:19:23;36.00;99.90
44047;DHT22;29713;-33.888;151.150;2023-02-01T04:21:50;36.10;99.90
44047;DHT22;29713;-33.888;151.150;2023-02-01T04:24:18;36.10;99.90
44047;DHT22;29713;-33.888;151.150;2023-02-01T04:26:45;35.90;99.90
44047;DHT22;29713;-33.888;151.150;2023-02-01T04:29:12;35.90;99.90
44047;DHT22;29713;-33.888;151.150;2023-02-01T04:31:40;35.60;99.90
44047;DHT22;29713;-33.888;151.150;2023-02-01T04:34:07;35.60;99.90
44047;DHT22;29713;-33.888;151.150;2023-02-01T04:36:34;35.60;99.90
44047;DHT22;29713;-33.888;151.150;2023-02-01T04:39:02;35.90;99.90
44047;DHT22;29713;-33.888;151.150;2023-02-01T04:41:29;36.30;99.90
44047;DHT22;29713;-33.888;151.150;2023-02-01T04:43:57;36.10;99.90
44047;DHT22;29713;-33.888;151.150;2023-02-01T04:46:24;36.20;99.90
44047;DHT22;29713;-33.888;151.150;2023-02-01T04:48:51;36.00;99.90
44047;DHT22;29713;-33.888;151.150;2023-02-01T04:51:18;36.10;99.90
44047;DHT22;29713;-33.888;151.150;2023-02-01T04:53:46;36.00;99.90
44047;DHT22;29713;-33.888;151.150;2023-02-01T04:56:13;35.80;99.90
44047;DHT22;29713;-33.888;151.150;2023-02-01T04:58:40;35.50;99.90
44047;DHT22;29713;-33.888;151.150;2023-02-01T05:01:08;35.50;99.90
44047;DHT22;29713;-33.888;151.150;2023-02-01T05:03:35;35.50;99.90
44047;DHT22;29713;-33.888;151.150;2023-02-01T05:06:03;35.50;99.90
44047;DHT22;29713;-33.888;151.150;2023-02-01T05:08:31;35.50;99.90
44047;DHT22;29713;-33.888;151.150;2023-02-01T05:10:59;35.60;99.90
44047;DHT22;29713;-33.888;151.150;2023-02-01T05:13:29;35.30;99.90
44047;DHT22;29713;-33.888;151.150;2023-02-01T05:16:15;35.00;99.90
44047;DHT22;29713;-33.888;151.150;2023-02-01T05:18:43;35.00;99.90
44047;DHT22;29713;-33.888;151.150;2023-02-01T05:21:10;35.20;99.90
44047;DHT22;29713;-33.888;151.150;2023-02-01T05:23:37;35.20;99.90
44047;DHT22;29713;-33.888;151.150;2023-02-01T05:26:25;35.10;99.90
44047;DHT22;29713;-33.888;151.150;2023-02-01T05:28:52;35.10;99.90
44047;DHT22;29713;-33.888;151.150;2023-02-01T05:31:20;35.00;99.90
44047;DHT22;29713;-33.888;151.150;2023-02-01T05:33:47;35.10;99.90
44047;DHT22;29713;-33.888;151.150;2023-02-01T05:36:15;35.00;99.90
44047;DHT22;29713;-33.888;151.150;2023-02-01T05:38:42;34.50;99.90
44047;DHT22;29713;-33.888;151.150;2023-02-01T05:41:10;34.00;99.90
44047;DHT22;29713;-33.888;151.150;2023-02-01T05:43:37;33.20;99.90
44047;DHT22;29713;-33.888;151.150;2023-02-01T05:46:04;32.50;99.90
44047;DHT22;29713;-33.888;151.150;2023-02-01T05:48:32;31.70;99.90
44047;DHT22;29713;-33.888;151.150;2023-02-01T05:50:59;31.30;99.90
44047;DHT22;29713;-33.888;151.150;2023-02-01T05:53:26;30.90;99.90
44047;DHT22;29713;-33.888;151.150;2023-02-01T05:55:54;30.50;99.90
44047;DHT22;29713;-33.888;151.150;2023-02-01T05:58:21;30.40;99.90
44047;DHT22;29713;-33.888;151.150;2023-02-01T06:00:48;30.60;99.90
44047;DHT22;29713;-33.888;151.150;2023-02-01T06:03:16;30.80;99.90
44047;DHT22;29713;-33.888;151.150;2023-02-01T06:05:47;30.60;99.90
44047;DHT22;29713;-33.888;151.150;2023-02-01T06:08:15;30.40;99.90
44047;DHT22;29713;-33.888;151.150;2023-02-01T06:10:44;30.20;99.90
44047;DHT22;29713;-33.888;151.150;2023-02-01T06:13:11;29.90;99.90
44047;DHT22;29713;-33.888;151.150;2023-02-01T06:15:38;29.50;99.90
44047;DHT22;29713;-33.888;151.150;2023-02-01T06:18:08;29.30;99.90
44047;DHT22;29713;-33.888;151.150;2023-02-01T06:20:35;29.10;99.90
44047;DHT22;29713;-33.888;151.150;2023-02-01T06:23:02;29.00;99.90
44047;DHT22;29713;-33.888;151.150;2023-02-01T06:25:32;28.80;99.90
44047;DHT22;29713;-33.888;151.150;2023-02-01T06:28:02;28.70;99.90
44047;DHT22;29713;-33.888;151.150;2023-02-01T06:30:32;28.40;99.90
44047;DHT22;29713;-33.888;151.150;2023-02-01T06:32:59;28.10;99.90
44047;DHT22;29713;-33.888;151.150;2023-02-01T06:35:27;28.10;99.90
44047;DHT22;29713;-33.888;151.150;2023-02-01T06:37:54;28.00;99.90
44047;DHT22;29713;-33.888;151.150;2023-02-01T06:40:21;28.00;99.90
44047;DHT22;29713;-33.888;151.150;2023-02-01T06:42:49;28.20;99.90
44047;DHT22;29713;-33.888;151.150;2023-02-01T06:45:16;28.30;99.90
44047;DHT22;29713;-33.888;151.150;2023-02-01T06:47:44;28.40;99.90
44047;DHT22;29713;-33.888;151.150;2023-02-01T06:50:11;28.60;99.90
44047;DHT22;29713;-33.888;151.150;2023-02-01T06:52:38;28.60;99.90
44047;DHT22;29713;-33.888;151.150;2023-02-01T06:55:06;28.90;99.90
44047;DHT22;29713;-33.888;151.150;2023-02-01T06:57:33;29.10;99.90
44047;DHT22;29713;-33.888;151.150;2023-02-01T07:00:03;29.20;99.90
44047;DHT22;29713;-33.888;151.150;2023-02-01T07:02:31;29.20;99.90
44047;DHT22;29713;-33.888;151.150;2023-02-01T07:04:59;29.20;99.90
44047;DHT22;29713;-33.888;151.150;2023-02-01T07:07:26;29.10;99.90
44047;DHT22;29713;-33.888;151.150;2023-02-01T07:09:53;29.10;99.90
44047;DHT22;29713;-33.888;151.150;2023-02-01T07:12:20;28.90;99.90
44047;DHT22;29713;-33.888;151.150;2023-02-01T07:14:48;28.90;99.90
44047;DHT22;29713;-33.888;151.150;2023-02-01T07:17:15;28.80;99.90
44047;DHT22;29713;-33.888;151.150;2023-02-01T07:19:42;28.60;99.90
44047;DHT22;29713;-33.888;151.150;2023-02-01T07:22:10;28.40;99.90
44047;DHT22;29713;-33.888;151.150;2023-02-01T07:24:37;28.20;99.90
44047;DHT22;29713;-33.888;151.150;2023-02-01T07:27:04;28.00;99.90
44047;DHT22;29713;-33.888;151.150;2023-02-01T07:29:32;27.90;99.90
44047;DHT22;29713;-33.888;151.150;2023-02-01T07:31:59;27.80;99.90
44047;DHT22;29713;-33.888;151.150;2023-02-01T07:34:29;27.60;99.90
44047;DHT22;29713;-33.888;151.150;2023-02-01T07:37:00;27.40;99.90
44047;DHT22;29713;-33.888;151.150;2023-02-01T07:39:27;27.30;99.90
44047;DHT22;29713;-33.888;151.150;2023-02-01T07:41:55;27.20;99.90
44047;DHT22;29713;-33.888;151.150;2023-02-01T07:44:23;27.20;99.90
44047;DHT22;29713;-33.888;151.150;2023-02-01T07:46:50;27.30;99.90
44047;DHT22;29713;-33.888;151.150;2023-02-01T07:49:18;27.20;99.90
44047;DHT22;29713;-33.888;151.150;2023-02-01T07:51:45;27.10;99.90
44047;DHT22;29713;-33.888;151.150;2023-02-01T07:54:12;27.10;99.90
44047;DHT22;29713;-33.888;151.150;2023-02-01T07:56:40;27.00;99.90
44047;DHT22;29713;-33.888;151.150;2023-02-01T07:59:07;27.00;99.90
44047;DHT22;29713;-33.888;151.150;2023-02-01T08:01:34;26.90;99.90
44047;DHT22;29713;-33.888;151.150;2023-02-01T08:04:02;26.90;99.90
44047;DHT22;29713;-33.888;151.150;2023-02-01T08:06:32;26.80;99.90
44047;DHT22;29713;-33.888;151.150;2023-02-01T08:09:00;26.80;99.90
44047;DHT22;29713;-33.888;151.150;2023-02-01T08:11:28;26.80;99.90
44047;DHT22;29713;-33.888;151.150;2023-02-01T08:13:57;26.80;99.90
44047;DHT22;29713;-33.888;151.150;2023-02-01T08:16:25;26.70;99.90
44047;DHT22;29713;-33.888;151.150;2023-02-01T08:18:52;26.70;99.90
44047;DHT22;29713;-33.888;151.150;2023-02-01T08:21:23;26.60;99.90
44047;DHT22;29713;-33.888;151.150;2023-02-01T08:23:51;26.60;99.90
44047;DHT22;29713;-33.888;151.150;2023-02-01T08:26:23;26.60;99.90
44047;DHT22;29713;-33.888;151.150;2023-02-01T08:28:57;26.60;99.90
44047;DHT22;29713;-33.888;151.150;2023-02-01T08:31:26;26.50;99.90
44047;DHT22;29713;-33.888;151.150;2023-02-01T08:33:55;26.60;99.90
44047;DHT22;29713;-33.888;151.150;2023-02-01T08:36:24;26.50;99.90
44047;DHT22;29713;-33.888;151.150;2023-02-01T08:38:52;26.40;99.90
44047;DHT22;29713;-33.888;151.150;2023-02-01T08:41:22;26.40;99.90
44047;DHT22;29713;-33.888;151.150;2023-02-01T08:43:49;26.30;99.90
44047;DHT22;29713;-33.888;151.150;2023-02-01T08:46:17;26.20;99.90
44047;DHT22;29713;-33.888;151.150;2023-02-01T08:48:46;26.20;99.90
44047;DHT22;29713;-33.888;151.150;2023-02-01T08:51:15;26.20;99.90
44047;DHT22;29713;-33.888;151.150;2023-02-01T08:53:43;26.20;99.90
44047;DHT22;29713;-33.888;151.150;2023-02-01T08:56:13;26.20;99.90
44047;DHT22;29713;-33.888;151.150;2023-02-01T08:58:41;26.10;99.90
44047;DHT22;29713;-33.888;151.150;2023-02-01T09:01:12;26.00;99.90
44047;DHT22;29713;-33.888;151.150;2023-02-01T09:03:40;26.00;99.90
44047;DHT22;29713;-33.888;151.150;2023-02-01T09:06:11;26.00;99.90
44047;DHT22;29713;-33.888;151.150;2023-02-01T09:08:39;26.00;99.90
44047;DHT22;29713;-33.888;151.150;2023-02-01T09:11:11;26.00;99.90
44047;DHT22;29713;-33.888;151.150;2023-02-01T09:13:39;25.90;99.90
44047;DHT22;29713;-33.888;151.150;2023-02-01T09:16:06;25.90;99.90
44047;DHT22;29713;-33.888;151.150;2023-02-01T09:18:34;25.80;99.90
44047;DHT22;29713;-33.888;151.150;2023-02-01T09:21:05;25.70;99.90
44047;DHT22;29713;-33.888;151.150;2023-02-01T09:23:33;25.70;99.90
44047;DHT22;29713;-33.888;151.150;2023-02-01T09:26:02;25.60;99.90
44047;DHT22;29713;-33.888;151.150;2023-02-01T09:28:30;25.60;99.90
44047;DHT22;29713;-33.888;151.150;2023-02-01T09:30:58;25.50;99.90
44047;DHT22;29713;-33.888;151.150;2023-02-01T09:33:29;25.50;99.90
44047;DHT22;29713;-33.888;151.150;2023-02-01T09:36:01;25.50;99.90
44047;DHT22;29713;-33.888;151.150;2023-02-01T09:38:30;25.50;99.90
44047;DHT22;29713;-33.888;151.150;2023-02-01T09:40:58;25.40;99.90
44047;DHT22;29713;-33.888;151.150;2023-02-01T09:46:26;25.40;99.90
44047;DHT22;29713;-33.888;151.150;2023-02-01T09:48:55;25.30;99.90
44047;DHT22;29713;-33.888;151.150;2023-02-01T09:51:45;25.30;99.90
44047;DHT22;29713;-33.888;151.150;2023-02-01T09:54:19;25.30;99.90
44047;DHT22;29713;-33.888;151.150;2023-02-01T09:57:05;25.30;99.90
44047;DHT22;29713;-33.888;151.150;2023-02-01T09:59:44;25.30;99.90
44047;DHT22;29713;-33.888;151.150;2023-02-01T10:02:16;25.30;99.90
44047;DHT22;29713;-33.888;151.150;2023-02-01T10:04:44;25.20;99.90
44047;DHT22;29713;-33.888;151.150;2023-02-01T10:12:37;25.10;99.90
44047;DHT22;29713;-33.888;151.150;2023-02-01T10:15:17;25.10;99.90
44047;DHT22;29713;-33.888;151.150;2023-02-01T10:28:38;25.10;99.90
44047;DHT22;29713;-33.888;151.150;2023-02-01T10:31:08;25.10;99.90
44047;DHT22;29713;-33.888;151.150;2023-02-01T10:33:39;25.00;99.90
44047;DHT22;29713;-33.888;151.150;2023-02-01T10:36:21;25.00;99.90
44047;DHT22;29713;-33.888;151.150;2023-02-01T10:38:48;25.00;99.90
44047;DHT22;29713;-33.888;151.150;2023-02-01T10:41:20;25.00;99.90
44047;DHT22;29713;-33.888;151.150;2023-02-01T10:43:55;25.00;99.90
44047;DHT22;29713;-33.888;151.150;2023-02-01T10:46:24;25.00;99.90
44047;DHT22;29713;-33.888;151.150;2023-02-01T10:48:54;24.90;99.90
44047;DHT22;29713;-33.888;151.150;2023-02-01T10:51:28;24.90;99.90
44047;DHT22;29713;-33.888;151.150;2023-02-01T10:54:18;24.90;99.90
44047;DHT22;29713;-33.888;151.150;2023-02-01T10:56:48;24.90;99.90
44047;DHT22;29713;-33.888;151.150;2023-02-01T10:59:19;24.90;99.90
44047;DHT22;29713;-33.888;151.150;2023-02-01T11:01:48;24.80;99.90
44047;DHT22;29713;-33.888;151.150;2023-02-01T11:04:20;24.80;99.90
44047;DHT22;29713;-33.888;151.150;2023-02-01T11:06:53;24.80;99.90
44047;DHT22;29713;-33.888;151.150;2023-02-01T11:09:22;24.80;99.90
44047;DHT22;29713;-33.888;151.150;2023-02-01T11:14:26;24.70;99.90
44047;DHT22;29713;-33.888;151.150;2023-02-01T11:16:54;24.70;99.90
44047;DHT22;29713;-33.888;151.150;2023-02-01T11:19:22;24.70;99.90
44047;DHT22;29713;-33.888;151.150;2023-02-01T11:21:54;24.70;99.90
44047;DHT22;29713;-33.888;151.150;2023-02-01T11:24:35;24.70;99.90
44047;DHT22;29713;-33.888;151.150;2023-02-01T11:27:12;24.70;99.90
44047;DHT22;29713;-33.888;151.150;2023-02-01T11:29:43;24.70;99.90
44047;DHT22;29713;-33.888;151.150;2023-02-01T11:32:13;24.70;99.90
44047;DHT22;29713;-33.888;151.150;2023-02-01T11:35:03;24.70;99.90
44047;DHT22;29713;-33.888;151.150;2023-02-01T11:37:42;24.70;99.90
44047;DHT22;29713;-33.888;151.150;2023-02-01T11:45:40;24.70;99.90
44047;DHT22;29713;-33.888;151.150;2023-02-01T11:48:15;24.70;99.90
44047;DHT22;29713;-33.888;151.150;2023-02-01T11:50:50;24.70;99.90
44047;DHT22;29713;-33.888;151.150;2023-02-01T12:02:31;24.70;99.90
44047;DHT22;29713;-33.888;151.150;2023-02-01T12:10:56;24.70;99.90
44047;DHT22;29713;-33.888;151.150;2023-02-01T12:13:43;24.70;99.90
44047;DHT22;29713;-33.888;151.150;2023-02-01T12:16:24;24.70;99.90
44047;DHT22;29713;-33.888;151.150;2023-02-01T12:19:17;24.70;99.90
44047;DHT22;29713;-33.888;151.150;2023-02-01T12:21:56;24.70;99.90
44047;DHT22;29713;-33.888;151.150;2023-02-01T12:24:33;24.60;99.90
44047;DHT22;29713;-33.888;151.150;2023-02-01T12:27:50;24.70;99.90
44047;DHT22;29713;-33.888;151.150;2023-02-01T12:33:52;24.70;99.90
44047;DHT22;29713;-33.888;151.150;2023-02-01T12:42:36;24.70;99.90
44047;DHT22;29713;-33.888;151.150;2023-02-01T12:47:49;24.70;99.90
44047;DHT22;29713;-33.888;151.150;2023-02-01T12:53:51;24.70;99.90
44047;DHT22;29713;-33.888;151.150;2023-02-01T12:56:52;24.70;99.90
44047;DHT22;29713;-33.888;151.150;2023-02-01T13:04:59;24.60;99.90
44047;DHT22;29713;-33.888;151.150;2023-02-01T13:07:35;24.70;99.90
44047;DHT22;29713;-33.888;151.150;2023-02-01T13:18:38;24.70;99.90
44047;DHT22;29713;-33.888;151.150;2023-02-01T13:21:20;24.70;99.90
44047;DHT22;29713;-33.888;151.150;2023-02-01T13:23:49;24.70;99.90
44047;DHT22;29713;-33.888;151.150;2023-02-01T13:26:17;24.70;99.90
44047;DHT22;29713;-33.888;151.150;2023-02-01T13:28:56;24.70;99.90
44047;DHT22;29713;-33.888;151.150;2023-02-01T13:31:47;24.70;99.90
44047;DHT22;29713;-33.888;151.150;2023-02-01T13:37:38;24.70;99.90
44047;DHT22;29713;-33.888;151.150;2023-02-01T13:40:30;24.70;99.90
44047;DHT22;29713;-33.888;151.150;2023-02-01T13:45:51;24.70;99.90
44047;DHT22;29713;-33.888;151.150;2023-02-01T13:50:54;24.70;99.90
44047;DHT22;29713;-33.888;151.150;2023-02-01T13:53:29;24.70;99.90
44047;DHT22;29713;-33.888;151.150;2023-02-01T13:56:08;24.60;99.90
44047;DHT22;29713;-33.888;151.150;2023-02-01T13:58:40;24.60;99.90
44047;DHT22;29713;-33.888;151.150;2023-02-01T14:04:02;24.60;99.90
44047;DHT22;29713;-33.888;151.150;2023-02-01T14:11:42;24.60;99.90
44047;DHT22;29713;-33.888;151.150;2023-02-01T14:19:33;24.60;99.90
44047;DHT22;29713;-33.888;151.150;2023-02-01T14:24:52;24.60;99.90
44047;DHT22;29713;-33.888;151.150;2023-02-01T14:27:35;24.50;99.90
44047;DHT22;29713;-33.888;151.150;2023-02-01T14:30:06;24.60;99.90
44047;DHT22;29713;-33.888;151.150;2023-02-01T14:32:37;24.50;99.90
44047;DHT22;29713;-33.888;151.150;2023-02-01T14:35:28;24.50;99.90
44047;DHT22;29713;-33.888;151.150;2023-02-01T14:38:05;24.50;99.90
44047;DHT22;29713;-33.888;151.150;2023-02-01T14:40:34;24.50;99.90
44047;DHT22;29713;-33.888;151.150;2023-02-01T14:43:02;24.50;99.90
44047;DHT22;29713;-33.888;151.150;2023-02-01T14:58:44;24.50;99.90
44047;DHT22;29713;-33.888;151.150;2023-02-01T15:01:16;24.50;99.90
44047;DHT22;29713;-33.888;151.150;2023-02-01T15:03:55;24.50;99.90
44047;DHT22;29713;-33.888;151.150;2023-02-01T15:06:39;24.50;99.90
44047;DHT22;29713;-33.888;151.150;2023-02-01T15:14:22;24.50;99.90
44047;DHT22;29713;-33.888;151.150;2023-02-01T15:16:49;24.50;99.90
44047;DHT22;29713;-33.888;151.150;2023-02-01T15:19:22;24.50;99.90
44047;DHT22;29713;-33.888;151.150;2023-02-01T15:21:52;24.50;99.90
44047;DHT22;29713;-33.888;151.150;2023-02-01T15:24:25;24.40;99.90
44047;DHT22;29713;-33.888;151.150;2023-02-01T15:26:53;24.30;99.90
44047;DHT22;29713;-33.888;151.150;2023-02-01T15:29:23;24.20;99.90
44047;DHT22;29713;-33.888;151.150;2023-02-01T15:31:59;24.20;99.90
44047;DHT22;29713;-33.888;151.150;2023-02-01T15:34:46;24.10;99.90
44047;DHT22;29713;-33.888;151.150;2023-02-01T15:37:16;24.00;99.90
44047;DHT22;29713;-33.888;151.150;2023-02-01T15:40:20;24.00;99.90
44047;DHT22;29713;-33.888;151.150;2023-02-01T15:42:56;23.90;99.90
44047;DHT22;29713;-33.888;151.150;2023-02-01T15:45:29;23.90;99.90
44047;DHT22;29713;-33.888;151.150;2023-02-01T15:47:59;23.80;99.90
44047;DHT22;29713;-33.888;151.150;2023-02-01T15:50:29;23.80;99.90
44047;DHT22;29713;-33.888;151.150;2023-02-01T15:52:57;23.80;99.90
44047;DHT22;29713;-33.888;151.150;2023-02-01T15:55:38;23.80;99.90
44047;DHT22;29713;-33.888;151.150;2023-02-01T15:58:19;23.80;99.90
44047;DHT22;29713;-33.888;151.150;2023-02-01T16:00:59;23.70;99.90
44047;DHT22;29713;-33.888;151.150;2023-02-01T16:03:43;23.70;99.90
44047;DHT22;29713;-33.888;151.150;2023-02-01T16:09:14;23.60;99.90
44047;DHT22;29713;-33.888;151.150;2023-02-01T16:12:02;23.60;99.90
44047;DHT22;29713;-33.888;151.150;2023-02-01T16:14:30;23.60;99.90
44047;DHT22;29713;-33.888;151.150;2023-02-01T16:16:59;23.50;99.90
44047;DHT22;29713;-33.888;151.150;2023-02-01T16:19:26;23.50;99.90
44047;DHT22;29713;-33.888;151.150;2023-02-01T16:21:55;23.50;99.90
44047;DHT22;29713;-33.888;151.150;2023-02-01T16:24:22;23.50;99.90
44047;DHT22;29713;-33.888;151.150;2023-02-01T16:26:52;23.60;99.90
44047;DHT22;29713;-33.888;151.150;2023-02-01T16:29:19;23.60;99.90
44047;DHT22;29713;-33.888;151.150;2023-02-01T16:31:49;23.60;99.90
44047;DHT22;29713;-33.888;151.150;2023-02-01T16:34:17;23.60;99.90
44047;DHT22;29713;-33.888;151.150;2023-02-01T16:36:47;23.60;99.90
44047;DHT22;29713;-33.888;151.150;2023-02-01T16:39:19;23.60;99.90
44047;DHT22;29713;-33.888;151.150;2023-02-01T16:41:47;23.60;99.90
44047;DHT22;29713;-33.888;151.150;2023-02-01T16:44:14;23.60;99.90
44047;DHT22;29713;-33.888;151.150;2023-02-01T16:46:46;23.60;99.90
44047;DHT22;29713;-33.888;151.150;2023-02-01T16:49:24;23.60;99.90
44047;DHT22;29713;-33.888;151.150;2023-02-01T16:51:55;23.60;99.90
44047;DHT22;29713;-33.888;151.150;2023-02-01T16:54:23;23.50;99.90
44047;DHT22;29713;-33.888;151.150;2023-02-01T16:56:51;23.50;99.90
44047;DHT22;29713;-33.888;151.150;2023-02-01T16:59:19;23.50;99.90
44047;DHT22;29713;-33.888;151.150;2023-02-01T17:01:46;23.50;99.90
44047;DHT22;29713;-33.888;151.150;2023-02-01T17:04:13;23.50;99.90
44047;DHT22;29713;-33.888;151.150;2023-02-01T17:06:42;23.50;99.90
44047;DHT22;29713;-33.888;151.150;2023-02-01T17:09:13;23.50;99.90
44047;DHT22;29713;-33.888;151.150;2023-02-01T17:11:40;23.50;99.90
44047;DHT22;29713;-33.888;151.150;2023-02-01T17:14:18;23.40;99.90
44047;DHT22;29713;-33.888;151.150;2023-02-01T17:16:47;23.50;99.90
44047;DHT22;29713;-33.888;151.150;2023-02-01T17:19:21;23.40;99.90
44047;DHT22;29713;-33.888;151.150;2023-02-01T17:21:53;23.40;99.90
44047;DHT22;29713;-33.888;151.150;2023-02-01T17:24:25;23.30;99.90
44047;DHT22;29713;-33.888;151.150;2023-02-01T17:26:53;23.30;99.90
44047;DHT22;29713;-33.888;151.150;2023-02-01T17:29:20;23.20;99.90
44047;DHT22;29713;-33.888;151.150;2023-02-01T17:31:50;23.20;99.90
44047;DHT22;29713;-33.888;151.150;2023-02-01T17:34:18;23.20;99.90
44047;DHT22;29713;-33.888;151.150;2023-02-01T17:36:46;23.10;99.90
44047;DHT22;29713;-33.888;151.150;2023-02-01T17:39:15;23.10;99.90
44047;DHT22;29713;-33.888;151.150;2023-02-01T17:42:04;23.00;99.90